createdAt,value
2018-08-18T00:02:27.823Z,16.20
2018-08-18T00:04:55.880Z,16.10
2018-08-18T00:07:23.876Z,16.10
2018-08-18T00:09:52.963Z,16.00
2018-08-18T00:12:26.564Z,16.00
2018-08-18T00:14:54.608Z,15.90
2018-08-18T00:17:22.655Z,15.90
2018-08-18T00:19:51.828Z,15.90
2018-08-18T00:22:19.905Z,15.90
2018-08-18T00:24:53.502Z,15.80
2018-08-18T00:27:22.478Z,15.80
2018-08-18T00:29:50.552Z,15.80
2018-08-18T00:32:18.589Z,15.80
2018-08-18T00:34:53.399Z,15.80
2018-08-18T00:37:22.216Z,15.80
2018-08-18T00:39:50.220Z,15.70
2018-08-18T00:42:18.257Z,15.70
2018-08-18T00:44:46.285Z,15.70
2018-08-18T00:47:14.307Z,15.70
2018-08-18T00:49:42.323Z,15.60
2018-08-18T00:52:10.353Z,15.60
2018-08-18T00:54:38.412Z,15.60
2018-08-18T00:57:20.968Z,15.60
2018-08-18T00:59:49.016Z,15.60
2018-08-18T01:02:17.040Z,15.60
2018-08-18T01:04:50.581Z,15.60
2018-08-18T01:07:18.613Z,15.60
2018-08-18T01:09:46.652Z,15.50
2018-08-18T01:12:14.749Z,15.50
2018-08-18T01:14:42.807Z,15.60
2018-08-18T01:17:10.772Z,15.60
2018-08-18T01:19:38.831Z,15.50
2018-08-18T01:22:08.191Z,15.50
2018-08-18T01:24:36.228Z,15.50
2018-08-18T01:27:04.658Z,15.50
2018-08-18T01:29:32.661Z,15.40
2018-08-18T01:32:00.700Z,15.40
2018-08-18T01:34:28.712Z,15.40
2018-08-18T01:37:00.303Z,15.40
2018-08-18T01:39:28.315Z,15.40
2018-08-18T01:41:56.348Z,15.40
2018-08-18T01:44:25.710Z,15.40
2018-08-18T01:46:54.492Z,15.30
2018-08-18T01:49:25.727Z,15.30
2018-08-18T01:51:53.789Z,15.30
2018-08-18T01:54:21.839Z,15.30
2018-08-18T01:56:51.108Z,15.20
2018-08-18T01:59:19.448Z,15.20
2018-08-18T02:01:47.844Z,15.20
2018-08-18T02:04:17.639Z,15.20
2018-08-18T02:06:45.684Z,15.10
2018-08-18T02:09:13.707Z,15.10
2018-08-18T02:11:42.089Z,15.10
2018-08-18T02:14:17.287Z,15.10
2018-08-18T02:16:45.333Z,15.00
2018-08-18T02:19:13.395Z,15.00
2018-08-18T02:21:41.422Z,15.00
2018-08-18T02:24:09.452Z,15.10
2018-08-18T02:26:37.489Z,15.10
2018-08-18T02:29:05.547Z,15.10
2018-08-18T02:31:34.122Z,15.10
2018-08-18T02:34:02.187Z,15.00
2018-08-18T02:36:30.204Z,15.00
2018-08-18T02:38:59.561Z,15.10
2018-08-18T02:41:29.037Z,15.20
2018-08-18T02:43:57.856Z,15.20
2018-08-18T02:46:34.388Z,15.30
2018-08-18T02:49:03.105Z,15.40
2018-08-18T02:51:31.904Z,15.40
2018-08-18T02:54:00.283Z,15.50
2018-08-18T02:56:33.675Z,15.50
2018-08-18T02:59:03.064Z,15.50
2018-08-18T03:01:36.033Z,15.40
2018-08-18T03:04:06.079Z,15.40
2018-08-18T03:06:34.141Z,15.30
2018-08-18T03:09:03.264Z,15.20
2018-08-18T03:11:31.490Z,15.10
2018-08-18T03:13:59.528Z,15.00
2018-08-18T03:16:27.555Z,15.00
2018-08-18T03:18:56.540Z,14.90
2018-08-18T03:21:30.723Z,14.90
2018-08-18T03:24:13.162Z,14.80
2018-08-18T03:26:42.440Z,14.80
2018-08-18T03:29:11.017Z,14.80
2018-08-18T03:31:39.636Z,14.80
2018-08-18T03:34:08.314Z,14.80
2018-08-18T03:36:37.436Z,14.80
2018-08-18T03:39:11.933Z,14.80
2018-08-18T03:41:39.967Z,14.90
2018-08-18T03:44:08.016Z,14.90
2018-08-18T03:46:36.072Z,14.90
2018-08-18T03:49:04.139Z,14.90
2018-08-18T03:51:37.753Z,14.90
2018-08-18T03:54:05.788Z,14.80
2018-08-18T03:56:33.806Z,14.80
2018-08-18T03:59:01.833Z,14.80
2018-08-18T04:01:42.853Z,14.80
2018-08-18T04:04:11.992Z,14.80
2018-08-18T04:06:41.075Z,14.70
2018-08-18T04:09:12.531Z,14.70
2018-08-18T04:11:40.725Z,14.70
2018-08-18T04:14:08.984Z,14.70
2018-08-18T04:16:40.061Z,14.70
2018-08-18T04:19:08.129Z,14.60
2018-08-18T04:21:36.173Z,14.60
2018-08-18T04:24:04.220Z,14.70
2018-08-18T04:26:32.247Z,14.60
2018-08-18T04:29:00.319Z,14.70
2018-08-18T04:31:30.703Z,14.70
2018-08-18T04:34:00.684Z,14.70
2018-08-18T04:36:28.722Z,14.70
2018-08-18T04:38:56.800Z,14.70
2018-08-18T04:41:24.820Z,14.80
2018-08-18T04:43:52.995Z,14.80
2018-08-18T04:46:20.957Z,14.80
2018-08-18T04:48:48.975Z,14.80
2018-08-18T04:51:17.027Z,14.80
2018-08-18T04:53:45.084Z,14.90
2018-08-18T04:56:13.172Z,15.00
2018-08-18T04:58:41.548Z,15.00
2018-08-18T05:01:09.591Z,15.10
2018-08-18T05:03:52.481Z,15.30
2018-08-18T05:06:25.096Z,15.60
2018-08-18T05:08:53.172Z,15.80
2018-08-18T05:11:21.179Z,15.80
2018-08-18T05:13:49.286Z,16.00
2018-08-18T05:16:17.564Z,16.10
2018-08-18T05:18:45.641Z,16.20
2018-08-18T05:21:13.650Z,16.40
2018-08-18T05:23:41.679Z,16.40
2018-08-18T05:26:09.720Z,16.30
2018-08-18T05:28:37.756Z,16.40
2018-08-18T05:31:05.776Z,16.50
2018-08-18T05:33:33.837Z,16.70
2018-08-18T05:36:01.907Z,16.80
2018-08-18T05:38:29.918Z,16.70
2018-08-18T05:40:57.935Z,16.60
2018-08-18T05:43:25.956Z,16.50
2018-08-18T05:45:54.012Z,16.50
2018-08-18T05:48:22.051Z,16.50
2018-08-18T05:50:50.085Z,16.50
2018-08-18T05:53:21.613Z,16.40
2018-08-18T05:55:50.083Z,16.40
2018-08-18T05:58:18.120Z,16.50
2018-08-18T06:00:46.425Z,16.50
2018-08-18T06:03:16.472Z,16.50
2018-08-18T06:05:44.539Z,16.50
2018-08-18T06:08:12.564Z,16.70
2018-08-18T06:10:40.664Z,16.80
2018-08-18T06:13:16.882Z,17.00
2018-08-18T06:16:01.875Z,17.10
2018-08-18T06:18:29.914Z,17.20
2018-08-18T06:20:57.944Z,17.30
2018-08-18T06:23:25.967Z,17.40
2018-08-18T06:25:54.001Z,17.40
2018-08-18T06:28:22.045Z,17.50
2018-08-18T06:30:50.066Z,17.60
2018-08-18T06:33:18.087Z,17.60
2018-08-18T06:35:46.117Z,17.60
2018-08-18T06:38:14.136Z,17.70
2018-08-18T06:40:46.429Z,17.80
2018-08-18T06:43:14.449Z,18.00
2018-08-18T06:45:42.508Z,18.00
2018-08-18T06:48:17.496Z,18.10
2018-08-18T06:50:46.527Z,18.10
2018-08-18T06:53:14.595Z,18.10
2018-08-18T06:55:42.632Z,18.20
2018-08-18T06:58:10.704Z,18.20
2018-08-18T07:00:38.923Z,18.20
2018-08-18T07:03:18.587Z,18.30
2018-08-18T07:05:46.696Z,18.50
2018-08-18T07:08:14.635Z,18.50
2018-08-18T07:10:42.668Z,18.60
2018-08-18T07:13:11.360Z,18.60
2018-08-18T07:15:45.908Z,18.60
2018-08-18T07:18:14.864Z,18.70
2018-08-18T07:20:43.168Z,18.80
2018-08-18T07:23:11.195Z,18.90
2018-08-18T07:25:48.483Z,19.00
2018-08-18T07:28:19.827Z,19.10
2018-08-18T07:30:47.877Z,19.20
2018-08-18T07:33:15.884Z,19.30
2018-08-18T07:35:43.937Z,19.30
2018-08-18T07:38:11.984Z,19.30
2018-08-18T07:40:40.912Z,19.40
2018-08-18T07:43:09.209Z,19.40
2018-08-18T07:45:37.911Z,19.60
2018-08-18T07:48:06.879Z,19.60
2018-08-18T07:50:34.855Z,19.80
2018-08-18T07:53:03.374Z,20.00
2018-08-18T07:55:31.613Z,20.10
2018-08-18T07:58:05.211Z,20.20
2018-08-18T08:00:34.489Z,20.40
2018-08-18T08:03:02.624Z,20.50
2018-08-18T08:05:30.986Z,20.50
2018-08-18T08:07:59.037Z,20.40
2018-08-18T08:10:27.093Z,20.40
2018-08-18T08:12:55.418Z,20.40
2018-08-18T08:15:23.410Z,20.40
2018-08-18T08:17:51.425Z,20.40
2018-08-18T08:20:19.469Z,20.40
2018-08-18T08:22:49.306Z,20.30
2018-08-18T08:25:17.413Z,20.40
2018-08-18T08:27:46.520Z,20.30
2018-08-18T08:30:14.850Z,20.30
2018-08-18T08:32:42.889Z,20.30
2018-08-18T08:35:11.107Z,20.30
2018-08-18T08:37:39.148Z,20.30
2018-08-18T08:40:09.306Z,20.50
2018-08-18T08:42:37.392Z,20.60
2018-08-18T08:45:06.468Z,20.60
2018-08-18T08:47:34.508Z,20.70
2018-08-18T08:50:02.520Z,20.60
2018-08-18T08:52:35.249Z,20.70
2018-08-18T08:55:03.272Z,20.80
2018-08-18T08:57:32.174Z,20.70
2018-08-18T09:00:00.215Z,20.70
2018-08-18T09:02:30.238Z,20.90
2018-08-18T09:04:59.860Z,21.00
2018-08-18T09:07:30.871Z,21.00
2018-08-18T09:09:59.813Z,21.00
2018-08-18T09:12:27.856Z,21.00
2018-08-18T09:14:55.953Z,21.00
2018-08-18T09:17:24.015Z,21.00
2018-08-18T09:19:52.046Z,21.00
2018-08-18T09:22:20.095Z,21.20
2018-08-18T09:24:48.136Z,21.40
2018-08-18T09:27:16.189Z,21.50
2018-08-18T09:29:47.084Z,21.60
2018-08-18T09:32:15.968Z,21.60
2018-08-18T09:34:49.615Z,21.60
2018-08-18T09:37:17.665Z,21.80
2018-08-18T09:39:45.920Z,22.00
2018-08-18T09:42:14.697Z,22.20
2018-08-18T09:44:44.435Z,22.20
2018-08-18T09:47:12.688Z,22.30
2018-08-18T09:49:40.719Z,22.40
2018-08-18T09:52:10.602Z,22.50
2018-08-18T09:54:38.627Z,22.50
2018-08-18T09:57:06.660Z,22.60
2018-08-18T09:59:34.707Z,22.60
2018-08-18T10:02:02.729Z,22.30
2018-08-18T10:04:30.780Z,22.40
2018-08-18T10:06:58.813Z,22.50
2018-08-18T10:09:26.839Z,22.50
2018-08-18T10:11:55.038Z,22.50
2018-08-18T10:14:23.083Z,22.30
2018-08-18T10:16:51.115Z,22.10
2018-08-18T10:19:19.141Z,22.00
2018-08-18T10:21:47.411Z,22.00
2018-08-18T10:24:15.573Z,22.20
2018-08-18T10:26:50.679Z,22.40
2018-08-18T10:29:21.288Z,22.50
2018-08-18T10:31:50.352Z,22.60
2018-08-18T10:34:19.347Z,22.40
2018-08-18T10:36:56.528Z,22.50
2018-08-18T10:39:24.554Z,22.60
2018-08-18T10:42:14.767Z,22.60
2018-08-18T10:44:49.283Z,22.50
2018-08-18T10:47:18.583Z,22.30
2018-08-18T10:49:58.344Z,22.30
2018-08-18T10:52:38.594Z,22.40
2018-08-18T10:55:08.027Z,22.50
2018-08-18T10:57:48.788Z,22.70
2018-08-18T11:00:18.076Z,22.80
2018-08-18T11:02:47.260Z,22.70
2018-08-18T11:05:15.953Z,22.70
2018-08-18T11:07:50.681Z,22.90
2018-08-18T11:10:18.692Z,22.90
2018-08-18T11:12:46.732Z,22.80
2018-08-18T11:15:14.742Z,22.70
2018-08-18T11:17:42.748Z,22.80
2018-08-18T11:20:18.519Z,22.90
2018-08-18T11:22:50.161Z,22.90
2018-08-18T11:25:19.453Z,22.90
2018-08-18T11:27:47.724Z,23.00
2018-08-18T11:30:15.788Z,23.00
2018-08-18T11:32:43.808Z,23.10
2018-08-18T11:35:11.860Z,23.10
2018-08-18T11:37:53.132Z,22.90
2018-08-18T11:40:21.821Z,22.80
2018-08-18T11:42:50.217Z,22.90
2018-08-18T11:45:19.486Z,22.90
2018-08-18T11:48:29.017Z,23.10
2018-08-18T11:50:57.342Z,23.20
2018-08-18T11:53:25.340Z,23.20
2018-08-18T11:55:53.421Z,23.30
2018-08-18T11:58:23.351Z,23.40
2018-08-18T12:00:54.706Z,23.30
2018-08-18T12:03:25.143Z,23.40
2018-08-18T12:05:54.252Z,23.60
2018-08-18T12:08:23.525Z,23.50
2018-08-18T12:10:52.670Z,23.50
2018-08-18T12:13:31.551Z,23.70
2018-08-18T12:16:04.523Z,23.80
2018-08-18T12:18:33.124Z,23.70
2018-08-18T12:21:02.392Z,23.60
2018-08-18T12:23:30.916Z,23.30
2018-08-18T12:26:06.147Z,23.20
2018-08-18T12:28:39.679Z,23.30
2018-08-18T12:31:09.648Z,23.40
2018-08-18T12:33:37.652Z,23.50
2018-08-18T12:36:05.717Z,25.30
2018-08-18T12:38:34.188Z,23.60
2018-08-18T12:41:03.055Z,23.70
2018-08-18T12:43:36.241Z,23.80
2018-08-18T12:46:06.000Z,23.70
2018-08-18T12:48:35.128Z,23.60
2018-08-18T12:51:03.991Z,23.90
2018-08-18T12:53:37.596Z,24.00
2018-08-18T12:56:06.051Z,23.90
2018-08-18T12:58:34.184Z,23.90
2018-08-18T13:01:02.420Z,23.90
2018-08-18T13:03:30.560Z,24.10
2018-08-18T13:05:58.599Z,24.00
2018-08-18T13:08:26.636Z,23.70
2018-08-18T13:10:55.055Z,23.60
2018-08-18T13:13:23.333Z,23.70
2018-08-18T13:15:53.972Z,23.80
2018-08-18T13:18:22.283Z,24.00
2018-08-18T13:20:51.657Z,24.00
2018-08-18T13:23:21.352Z,24.00
2018-08-18T13:25:49.747Z,23.80
2018-08-18T13:28:17.807Z,23.70
2018-08-18T13:30:45.841Z,23.80
2018-08-18T13:33:13.938Z,23.90
2018-08-18T13:35:41.936Z,24.00
2018-08-18T13:38:29.663Z,23.90
2018-08-18T13:40:57.676Z,23.90
2018-08-18T13:43:38.254Z,23.90
2018-08-18T13:46:06.783Z,24.20
2018-08-18T13:51:25.377Z,24.30
2018-08-18T13:53:54.864Z,24.50
2018-08-18T13:56:24.751Z,24.40
2018-08-18T13:58:53.798Z,24.20
2018-08-18T14:01:33.355Z,24.20
2018-08-18T14:04:01.380Z,24.20
2018-08-18T14:06:29.871Z,24.50
2018-08-18T14:09:01.797Z,24.70
2018-08-18T14:11:30.912Z,24.70
2018-08-18T14:13:59.871Z,24.50
2018-08-18T14:16:28.637Z,24.60
2018-08-18T14:18:56.838Z,24.70
2018-08-18T14:21:24.861Z,24.80
2018-08-18T14:23:52.888Z,24.70
2018-08-18T14:26:20.920Z,24.70
2018-08-18T14:28:48.936Z,24.60
2018-08-18T14:31:16.956Z,24.50
2018-08-18T14:33:44.972Z,24.40
2018-08-18T14:36:14.060Z,24.30
2018-08-18T14:38:43.787Z,24.50
2018-08-18T14:41:12.344Z,24.70
2018-08-18T14:43:41.672Z,24.70
2018-08-18T14:46:12.329Z,24.90
2018-08-18T14:48:40.288Z,24.70
2018-08-18T14:51:08.740Z,24.70
2018-08-18T14:53:40.420Z,24.80
2018-08-18T14:56:08.600Z,24.70
2018-08-18T14:58:36.812Z,24.60
2018-08-18T15:01:10.622Z,24.60
2018-08-18T15:03:39.036Z,24.60
2018-08-18T15:06:07.069Z,24.70
2018-08-18T15:08:35.117Z,24.80
2018-08-18T15:11:03.161Z,24.90
2018-08-18T15:13:31.212Z,25.00
2018-08-18T15:15:59.247Z,25.10
2018-08-18T15:18:27.289Z,25.10
2018-08-18T15:20:55.328Z,25.00
2018-08-18T15:23:23.319Z,25.10
2018-08-18T15:25:51.344Z,25.10
2018-08-18T15:28:20.427Z,25.00
2018-08-18T15:30:49.841Z,25.00
2018-08-18T15:33:19.971Z,25.10
2018-08-18T15:35:48.004Z,25.20
2018-08-18T15:38:16.052Z,25.50
2018-08-18T15:40:44.192Z,25.70
2018-08-18T15:43:12.259Z,25.80
2018-08-18T15:46:02.553Z,25.90
2018-08-18T15:48:30.908Z,26.00
2018-08-18T15:50:58.944Z,26.10
2018-08-18T15:53:42.555Z,26.30
2018-08-18T15:56:10.617Z,26.40
2018-08-18T15:58:38.753Z,26.70
2018-08-18T16:01:06.815Z,26.60
2018-08-18T16:03:34.781Z,26.30
2018-08-18T16:06:02.818Z,26.40
2018-08-18T16:08:30.863Z,26.60
2018-08-18T16:10:58.881Z,26.60
2018-08-18T16:13:26.901Z,26.30
2018-08-18T16:15:54.904Z,26.50
2018-08-18T16:18:22.944Z,26.60
2018-08-18T16:20:50.952Z,26.40
2018-08-18T16:23:26.011Z,25.90
2018-08-18T16:25:54.263Z,25.70
2018-08-18T16:28:29.367Z,25.70
2018-08-18T16:30:57.395Z,25.60
2018-08-18T16:33:25.414Z,25.40
2018-08-18T16:35:53.412Z,25.30
2018-08-18T16:38:21.452Z,25.00
2018-08-18T16:40:49.448Z,24.70
2018-08-18T16:43:17.499Z,24.70
2018-08-18T16:45:45.543Z,24.70
2018-08-18T16:48:13.634Z,24.80
2018-08-18T16:50:42.346Z,24.60
2018-08-18T16:53:11.521Z,24.50
2018-08-18T16:55:40.876Z,24.50
2018-08-18T16:58:08.896Z,24.40
2018-08-18T17:00:54.333Z,24.40
2018-08-18T17:03:30.267Z,24.50
2018-08-18T17:05:59.089Z,24.40
2018-08-18T17:08:27.399Z,24.50
2018-08-18T17:10:55.357Z,24.40
2018-08-18T17:13:23.427Z,24.50
2018-08-18T17:15:51.646Z,24.60
2018-08-18T17:18:19.652Z,24.70
2018-08-18T17:20:52.195Z,24.80
2018-08-18T17:23:20.229Z,24.80
2018-08-18T17:25:48.263Z,24.80
2018-08-18T17:28:16.315Z,25.10
2018-08-18T17:30:44.811Z,25.20
2018-08-18T17:33:12.965Z,25.40
2018-08-18T17:35:41.102Z,25.50
2018-08-18T17:38:09.202Z,25.60
2018-08-18T17:40:37.296Z,25.30
2018-08-18T17:43:05.331Z,25.00
2018-08-18T17:45:37.591Z,24.90
2018-08-18T17:48:05.600Z,24.90
2018-08-18T17:50:33.790Z,24.70
2018-08-18T17:53:01.832Z,24.70
2018-08-18T17:55:29.858Z,24.60
2018-08-18T17:57:57.881Z,24.40
2018-08-18T18:00:25.938Z,24.10
2018-08-18T18:02:55.930Z,24.00
2018-08-18T18:05:28.734Z,23.80
2018-08-18T18:07:59.164Z,23.80
2018-08-18T18:10:29.480Z,23.70
2018-08-18T18:12:57.495Z,23.50
2018-08-18T18:15:31.971Z,23.40
2018-08-18T18:17:59.980Z,23.30
2018-08-18T18:20:29.233Z,23.10
2018-08-18T18:22:57.244Z,23.10
2018-08-18T18:25:25.272Z,23.00
2018-08-18T18:27:54.660Z,22.90
2018-08-18T18:30:26.337Z,22.90
2018-08-18T18:32:54.503Z,22.90
2018-08-18T18:35:23.720Z,22.80
2018-08-18T18:37:52.195Z,22.80
2018-08-18T18:40:20.200Z,22.80
2018-08-18T18:42:48.235Z,22.70
2018-08-18T18:45:16.253Z,22.70
2018-08-18T18:47:45.199Z,22.60
2018-08-18T18:50:14.376Z,22.50
2018-08-18T18:52:42.707Z,22.50
2018-08-18T18:55:10.747Z,22.40
2018-08-18T18:57:43.547Z,22.40
2018-08-18T19:00:11.735Z,22.30
2018-08-18T19:02:42.932Z,22.30
2018-08-18T19:05:19.897Z,22.20
2018-08-18T19:07:55.032Z,22.20
2018-08-18T19:10:23.725Z,22.10
2018-08-18T19:12:53.248Z,22.00
2018-08-18T19:15:21.416Z,22.10
2018-08-18T19:17:49.439Z,22.10
2018-08-18T19:20:23.448Z,22.10
2018-08-18T19:22:56.463Z,22.20
2018-08-18T19:25:24.488Z,22.10
2018-08-18T19:27:52.540Z,22.10
2018-08-18T19:30:20.568Z,22.00
2018-08-18T19:32:50.117Z,21.90
2018-08-18T19:35:21.299Z,21.90
2018-08-18T19:37:52.378Z,21.70
2018-08-18T19:40:21.019Z,21.70
2018-08-18T19:42:49.176Z,21.60
2018-08-18T19:45:17.204Z,21.60
2018-08-18T19:47:46.252Z,21.60
2018-08-18T19:50:14.619Z,21.50
2018-08-18T19:52:42.661Z,21.50
2018-08-18T19:55:11.123Z,21.40
2018-08-18T19:57:39.800Z,21.40
2018-08-18T20:00:15.316Z,21.30
2018-08-18T20:02:49.538Z,21.30
2018-08-18T20:05:18.553Z,21.30
2018-08-18T20:07:46.727Z,21.30
2018-08-18T20:10:14.756Z,21.20
2018-08-18T20:12:43.180Z,21.30
2018-08-18T20:15:11.212Z,21.20
2018-08-18T20:17:39.421Z,21.10
2018-08-18T20:20:07.481Z,21.10
2018-08-18T20:22:35.531Z,21.10
2018-08-18T20:25:04.260Z,21.10
2018-08-18T20:27:32.536Z,21.10
2018-08-18T20:30:00.575Z,21.10
2018-08-18T20:32:28.617Z,21.10
2018-08-18T20:34:56.645Z,21.10
2018-08-18T20:37:24.681Z,21.10
2018-08-18T20:39:52.727Z,21.10
2018-08-18T20:42:27.379Z,21.00
2018-08-18T20:44:57.516Z,21.00
2018-08-18T20:47:26.716Z,20.90
2018-08-18T20:49:55.232Z,20.90
2018-08-18T20:52:23.252Z,20.90
2018-08-18T20:54:51.446Z,20.90
2018-08-18T20:57:20.331Z,20.80
2018-08-18T20:59:48.765Z,20.90
2018-08-18T21:02:17.009Z,20.80
2018-08-18T21:04:49.326Z,20.80
2018-08-18T21:07:17.348Z,20.80
2018-08-18T21:09:45.364Z,20.80
2018-08-18T21:12:13.396Z,20.70
2018-08-18T21:14:41.464Z,20.70
2018-08-18T21:17:09.504Z,20.70
2018-08-18T21:19:37.524Z,20.70
2018-08-18T21:22:05.548Z,20.70
2018-08-18T21:24:33.564Z,20.60
2018-08-18T21:27:01.581Z,20.60
2018-08-18T21:29:29.604Z,20.50
2018-08-18T21:31:57.613Z,20.50
2018-08-18T21:34:25.703Z,20.50
2018-08-18T21:36:53.737Z,20.40
2018-08-18T21:39:21.772Z,20.40
2018-08-18T21:41:49.844Z,20.40
2018-08-18T21:44:17.953Z,20.40
2018-08-18T21:46:45.976Z,20.40
2018-08-18T21:49:13.999Z,20.30
2018-08-18T21:51:42.003Z,20.30
2018-08-18T21:54:10.039Z,20.30
2018-08-18T21:56:40.286Z,20.30
2018-08-18T21:59:09.683Z,20.30
2018-08-18T22:01:37.696Z,20.20
2018-08-18T22:04:06.069Z,20.20
2018-08-18T22:06:34.154Z,20.20
2018-08-18T22:09:20.916Z,20.10
2018-08-18T22:11:48.976Z,20.10
2018-08-18T22:14:17.891Z,20.10
2018-08-18T22:16:51.416Z,20.10
2018-08-18T22:19:20.088Z,20.10
2018-08-18T22:21:48.105Z,20.00
2018-08-18T22:24:16.195Z,20.00
2018-08-18T22:26:44.229Z,20.00
2018-08-18T22:29:12.295Z,20.00
2018-08-18T22:31:40.318Z,20.00
2018-08-18T22:34:08.368Z,19.90
2018-08-18T22:36:37.152Z,19.90
2018-08-18T22:39:07.749Z,19.80
2018-08-18T22:41:35.802Z,19.80
2018-08-18T22:44:03.994Z,19.80
2018-08-18T22:46:32.037Z,19.70
2018-08-18T22:49:00.091Z,19.60
2018-08-18T22:51:28.117Z,19.60
2018-08-18T22:53:56.929Z,19.50
2018-08-18T22:56:30.407Z,19.50
2018-08-18T22:59:03.629Z,19.50
2018-08-18T23:01:32.404Z,19.40
2018-08-18T23:04:00.803Z,19.40
2018-08-18T23:06:30.788Z,19.40
2018-08-18T23:08:58.837Z,19.40
2018-08-18T23:11:26.865Z,19.40
2018-08-18T23:13:54.915Z,19.40
2018-08-18T23:16:22.943Z,19.40
2018-08-18T23:18:50.973Z,19.40
2018-08-18T23:21:25.299Z,19.30
2018-08-18T23:23:53.338Z,19.30
2018-08-18T23:26:21.376Z,19.30
2018-08-18T23:28:49.431Z,19.30
2018-08-18T23:31:17.471Z,19.30
2018-08-18T23:33:45.516Z,19.30
2018-08-18T23:36:13.560Z,19.30
2018-08-18T23:38:45.145Z,19.20
2018-08-18T23:41:13.199Z,19.20
2018-08-18T23:43:41.245Z,19.10
2018-08-18T23:46:09.282Z,19.20
2018-08-18T23:48:37.351Z,19.10
2018-08-18T23:51:05.528Z,19.10
2018-08-18T23:53:33.838Z,19.10
2018-08-18T23:56:01.880Z,19.10
2018-08-18T23:58:30.447Z,19.10
